createdAt,value
2022-12-03T00:02:57.572Z,101011.53
2022-12-03T00:05:59.498Z,101011.56
2022-12-03T00:09:01.281Z,101014.34
2022-12-03T00:12:03.324Z,101015.16
2022-12-03T00:15:06.557Z,101025.75
2022-12-03T00:18:08.413Z,101015.38
2022-12-03T00:21:10.275Z,101025.00
2022-12-03T00:24:12.153Z,101037.28
2022-12-03T00:27:14.078Z,101038.38
2022-12-03T00:30:16.070Z,101038.28
2022-12-03T00:33:17.846Z,101040.91
2022-12-03T00:36:19.832Z,101047.91
2022-12-03T00:39:21.762Z,101046.97
2022-12-03T00:42:23.618Z,101046.31
2022-12-03T00:45:25.452Z,101055.06
2022-12-03T00:48:27.368Z,101052.69
2022-12-03T00:51:29.258Z,101063.03
2022-12-03T00:54:32.222Z,101069.25
2022-12-03T00:57:34.399Z,101064.88
2022-12-03T01:00:37.810Z,101074.56
2022-12-03T01:03:39.717Z,101070.34
2022-12-03T01:06:41.633Z,101081.88
2022-12-03T01:09:43.518Z,101081.00
2022-12-03T01:12:45.599Z,101074.94
2022-12-03T01:15:48.047Z,101089.81
2022-12-03T01:18:52.453Z,101082.94
2022-12-03T01:21:55.621Z,101080.19
2022-12-03T01:24:57.456Z,101089.94
2022-12-03T01:27:59.331Z,101093.47
2022-12-03T01:31:19.671Z,101099.13
2022-12-03T01:34:21.912Z,101103.44
2022-12-03T01:37:26.035Z,101098.22
2022-12-03T01:40:27.891Z,101096.56
2022-12-03T01:43:29.986Z,101103.78
2022-12-03T01:46:39.061Z,101099.41
2022-12-03T01:49:48.904Z,101103.00
2022-12-03T01:52:51.178Z,101096.06
2022-12-03T01:55:53.056Z,101096.97
2022-12-03T01:58:54.947Z,101107.63
2022-12-03T02:01:56.794Z,101113.81
2022-12-03T02:05:00.257Z,101120.78
2022-12-03T02:08:02.327Z,101117.31
2022-12-03T02:11:33.268Z,101134.75
2022-12-03T02:14:35.222Z,101131.38
2022-12-03T02:17:37.419Z,101127.16
2022-12-03T02:20:53.456Z,101138.47
2022-12-03T02:24:23.822Z,101136.69
2022-12-03T02:27:28.338Z,101137.66
2022-12-03T02:30:31.635Z,101142.06
2022-12-03T02:33:33.674Z,101149.91
2022-12-03T02:36:36.566Z,101155.06
2022-12-03T02:39:41.310Z,101153.41
2022-12-03T02:42:45.007Z,101153.44
2022-12-03T02:45:49.955Z,101164.53
2022-12-03T02:48:51.982Z,101169.81
2022-12-03T02:51:53.900Z,101166.31
2022-12-03T02:54:56.097Z,101164.63
2022-12-03T02:57:58.404Z,101168.91
2022-12-03T03:01:02.199Z,101164.59
2022-12-03T03:04:05.691Z,101164.50
2022-12-03T03:07:08.411Z,101173.19
2022-12-03T03:10:14.626Z,101176.69
2022-12-03T03:13:18.688Z,101178.38
2022-12-03T03:16:20.733Z,101186.22
2022-12-03T03:19:26.626Z,101181.78
2022-12-03T03:22:37.325Z,101176.47
2022-12-03T03:25:41.183Z,101186.03
2022-12-03T03:28:46.835Z,101186.94
2022-12-03T03:31:49.103Z,101189.47
2022-12-03T03:34:51.243Z,101187.75
2022-12-03T03:37:53.922Z,101187.66
2022-12-03T03:40:58.130Z,101187.66
2022-12-03T03:44:00.646Z,101198.09
2022-12-03T03:47:03.017Z,101201.53
2022-12-03T03:50:07.270Z,101199.81
2022-12-03T03:53:11.069Z,101199.69
2022-12-03T03:56:13.531Z,101206.59
2022-12-03T03:59:15.798Z,101208.38
2022-12-03T04:02:22.031Z,101202.22
2022-12-03T04:05:24.933Z,101212.63
2022-12-03T04:08:26.660Z,101219.50
2022-12-03T04:11:47.055Z,101216.81
2022-12-03T04:14:48.918Z,101222.78
2022-12-03T04:18:11.169Z,101222.13
2022-12-03T04:21:34.024Z,101228.91
2022-12-03T04:24:35.928Z,101232.34
2022-12-03T04:27:56.555Z,101243.66
2022-12-03T04:30:58.547Z,101244.44
2022-12-03T04:34:18.827Z,101240.19
2022-12-03T04:37:20.842Z,101240.13
2022-12-03T04:40:41.300Z,101247.09
2022-12-03T04:44:01.444Z,101255.84
2022-12-03T04:47:12.220Z,101255.81
2022-12-03T04:50:14.144Z,101258.41
2022-12-03T04:53:16.277Z,101257.34
2022-12-03T04:56:18.151Z,101264.28
2022-12-03T04:59:20.182Z,101272.19
2022-12-03T05:02:22.085Z,101272.31
2022-12-03T05:05:24.048Z,101279.09
2022-12-03T05:08:25.967Z,101281.50
2022-12-03T05:11:27.940Z,101284.22
2022-12-03T05:14:29.850Z,101294.63
2022-12-03T05:17:31.815Z,101295.44
2022-12-03T05:20:43.843Z,101294.63
2022-12-03T05:23:47.627Z,101290.25
2022-12-03T05:26:49.854Z,101299.00
2022-12-03T05:29:52.141Z,101304.91
2022-12-03T05:32:54.105Z,101301.59
2022-12-03T05:35:56.003Z,101309.34
2022-12-03T05:38:57.875Z,101312.94
2022-12-03T05:42:18.183Z,101322.47
2022-12-03T05:45:41.300Z,101324.25
2022-12-03T05:48:43.140Z,101311.09
2022-12-03T05:51:45.025Z,101319.75
2022-12-03T05:54:46.882Z,101319.72
2022-12-03T05:57:49.127Z,101315.44
2022-12-03T06:00:51.036Z,101329.47
2022-12-03T06:03:53.005Z,101327.78
2022-12-03T06:06:54.976Z,101327.66
2022-12-03T06:09:56.888Z,101336.19
2022-12-03T06:12:58.810Z,101341.31
2022-12-03T06:16:00.715Z,101327.44
2022-12-03T06:19:03.231Z,101341.50
2022-12-03T06:22:05.148Z,101343.06
2022-12-03T06:25:07.508Z,101347.44
2022-12-03T06:28:09.399Z,101338.84
2022-12-03T06:31:11.337Z,101342.28
2022-12-03T06:34:13.700Z,101348.38
2022-12-03T06:37:15.593Z,101347.47
2022-12-03T06:40:17.503Z,101352.59
2022-12-03T06:43:19.311Z,101356.78
2022-12-03T06:46:21.234Z,101350.69
2022-12-03T06:49:23.130Z,101369.84
2022-12-03T06:52:24.979Z,101359.31
2022-12-03T06:55:26.768Z,101362.72
2022-12-03T06:58:28.657Z,101354.00
2022-12-03T07:01:30.623Z,101361.97
2022-12-03T07:04:32.512Z,101355.69
2022-12-03T07:07:34.387Z,101359.06
2022-12-03T07:10:36.316Z,101363.38
2022-12-03T07:13:38.480Z,101364.28
2022-12-03T07:16:40.564Z,101377.50
2022-12-03T07:19:42.421Z,101360.94
2022-12-03T07:22:44.231Z,101368.69
2022-12-03T07:25:46.407Z,101374.72
2022-12-03T07:28:48.402Z,101377.09
2022-12-03T07:31:50.459Z,101376.28
2022-12-03T07:34:52.777Z,101381.41
2022-12-03T07:37:54.831Z,101377.75
2022-12-03T07:40:56.737Z,101371.53
2022-12-03T07:43:58.583Z,101385.47
2022-12-03T07:47:00.553Z,101388.03
2022-12-03T07:50:02.489Z,101386.56
2022-12-03T07:53:04.365Z,101384.69
2022-12-03T07:56:06.712Z,101397.78
2022-12-03T07:59:08.601Z,101395.03
2022-12-03T08:02:10.576Z,101386.97
2022-12-03T08:05:12.439Z,101388.69
2022-12-03T08:08:14.757Z,101399.31
2022-12-03T08:11:16.599Z,101399.28
2022-12-03T08:14:20.557Z,101400.28
2022-12-03T08:17:23.607Z,101393.31
2022-12-03T08:20:33.439Z,101395.19
2022-12-03T08:23:36.777Z,101402.19
2022-12-03T08:26:38.641Z,101405.63
2022-12-03T08:29:40.455Z,101403.53
2022-12-03T08:32:43.119Z,101402.00
2022-12-03T08:35:50.997Z,101398.59
2022-12-03T08:38:57.245Z,101409.00
2022-12-03T08:42:28.349Z,101410.94
2022-12-03T08:45:32.163Z,101410.81
2022-12-03T08:48:40.709Z,101401.94
2022-12-03T08:51:45.775Z,101401.56
2022-12-03T08:54:54.720Z,101398.97
2022-12-03T08:57:56.904Z,101406.69
2022-12-03T09:01:08.649Z,101404.03
2022-12-03T09:04:31.034Z,101397.78
2022-12-03T09:07:33.023Z,101393.47
2022-12-03T09:10:34.928Z,101383.81
2022-12-03T09:13:36.846Z,101389.97
2022-12-03T09:16:38.785Z,101390.78
2022-12-03T09:19:46.187Z,101381.16
2022-12-03T09:22:48.442Z,101389.06
2022-12-03T09:25:50.278Z,101392.53
2022-12-03T09:28:52.179Z,101399.56
2022-12-03T09:31:54.097Z,101401.28
2022-12-03T09:34:56.305Z,101402.97
2022-12-03T09:37:58.349Z,101396.72
2022-12-03T09:41:00.440Z,101401.22
2022-12-03T09:44:04.290Z,101401.78
2022-12-03T09:47:08.189Z,101395.63
2022-12-03T09:50:14.796Z,101400.06
2022-12-03T09:53:20.958Z,101399.28
2022-12-03T09:56:23.640Z,101393.41
2022-12-03T09:59:31.687Z,101384.88
2022-12-03T10:02:34.811Z,101384.81
2022-12-03T10:05:36.955Z,101391.78
2022-12-03T10:08:38.871Z,101390.16
2022-12-03T10:11:40.814Z,101384.06
2022-12-03T10:14:43.086Z,101392.09
2022-12-03T10:17:48.017Z,101385.78
2022-12-03T10:20:53.563Z,101386.78
2022-12-03T10:24:17.397Z,101383.94
2022-12-03T10:30:56.761Z,101386.47
2022-12-03T10:33:58.723Z,101391.84
2022-12-03T10:37:14.920Z,101401.25
2022-12-03T10:40:25.315Z,101394.81
2022-12-03T10:43:28.372Z,101384.97
2022-12-03T10:46:34.152Z,101383.97
2022-12-03T10:49:36.505Z,101388.03
2022-12-03T10:52:38.402Z,101380.84
2022-12-03T10:55:42.616Z,101379.00
2022-12-03T10:58:44.725Z,101382.69
2022-12-03T11:01:47.045Z,101383.41
2022-12-03T11:04:49.604Z,101397.25
2022-12-03T11:07:51.586Z,101384.91
2022-12-03T11:11:20.802Z,101382.50
2022-12-03T11:14:54.046Z,101392.91
2022-12-03T11:17:56.234Z,101391.28
2022-12-03T11:20:58.035Z,101396.72
2022-12-03T11:23:59.838Z,101393.19
2022-12-03T11:27:01.741Z,101399.50
2022-12-03T11:30:03.908Z,101400.41
2022-12-03T11:33:32.858Z,101400.47
2022-12-03T11:37:00.259Z,101400.75
2022-12-03T11:40:04.026Z,101411.38
2022-12-03T11:43:10.028Z,101402.75
2022-12-03T11:46:12.166Z,101401.91
2022-12-03T11:49:32.855Z,101407.13
2022-12-03T11:52:43.269Z,101394.78
2022-12-03T11:55:49.113Z,101411.38
2022-12-03T11:59:01.981Z,101403.28
2022-12-03T12:02:20.092Z,101413.75
2022-12-03T12:05:26.799Z,101411.19
2022-12-03T12:08:28.811Z,101419.38
2022-12-03T12:11:33.864Z,101414.16
2022-12-03T12:14:35.793Z,101428.19
2022-12-03T12:17:37.703Z,101430.88
2022-12-03T12:20:39.661Z,101430.13
2022-12-03T12:23:41.573Z,101433.00
2022-12-03T12:26:51.378Z,101430.47
2022-12-03T12:30:01.461Z,101435.78
2022-12-03T12:33:24.466Z,101430.53
2022-12-03T12:36:26.289Z,101427.13
2022-12-03T12:39:28.415Z,101427.38
2022-12-03T12:42:31.853Z,101433.28
2022-12-03T12:45:35.736Z,101442.78
2022-12-03T12:48:39.373Z,101446.13
2022-12-03T12:51:45.563Z,101442.72
2022-12-03T12:54:47.504Z,101448.03
2022-12-03T12:57:49.889Z,101448.16
2022-12-03T13:00:56.125Z,101443.03
2022-12-03T13:03:59.606Z,101432.53
2022-12-03T13:07:01.583Z,101442.22
2022-12-03T13:10:20.541Z,101451.84
2022-12-03T13:13:25.967Z,101449.25
2022-12-03T13:16:32.756Z,101448.50
2022-12-03T13:19:43.312Z,101443.41
2022-12-03T13:22:48.805Z,101447.94
2022-12-03T13:26:09.240Z,101449.72
2022-12-03T13:29:16.612Z,101441.81
2022-12-03T13:32:31.237Z,101447.97
2022-12-03T13:35:36.430Z,101459.47
2022-12-03T13:38:38.345Z,101451.66
2022-12-03T13:42:00.187Z,101457.00
2022-12-03T13:45:04.003Z,101452.78
2022-12-03T13:48:30.374Z,101458.13
2022-12-03T13:51:33.451Z,101454.56
2022-12-03T13:54:38.077Z,101458.22
2022-12-03T13:57:40.058Z,101467.03
2022-12-03T14:00:43.073Z,101466.16
2022-12-03T14:03:45.088Z,101467.19
2022-12-03T14:06:46.935Z,101468.16
2022-12-03T14:09:48.829Z,101486.63
2022-12-03T14:12:50.691Z,101482.34
2022-12-03T14:15:52.506Z,101486.75
2022-12-03T14:18:54.417Z,101486.81
2022-12-03T14:21:56.446Z,101485.06
2022-12-03T14:24:58.388Z,101486.69
2022-12-03T14:28:00.900Z,101490.09
2022-12-03T14:31:02.771Z,101486.69
2022-12-03T14:34:04.646Z,101493.72
2022-12-03T14:37:06.500Z,101483.31
2022-12-03T14:40:09.204Z,101484.13
2022-12-03T14:43:11.148Z,101486.91
2022-12-03T14:46:12.977Z,101486.09
2022-12-03T14:49:14.869Z,101487.97
2022-12-03T14:52:17.131Z,101492.38
2022-12-03T14:55:19.147Z,101488.91
2022-12-03T14:58:20.922Z,101499.38
2022-12-03T15:01:23.326Z,101495.81
2022-12-03T15:04:25.609Z,101498.41
2022-12-03T15:07:27.560Z,101508.81
2022-12-03T15:10:29.453Z,101508.00
2022-12-03T15:13:31.364Z,101511.50
2022-12-03T15:16:33.324Z,101526.38
2022-12-03T15:19:35.199Z,101524.69
2022-12-03T15:22:36.998Z,101518.63
2022-12-03T15:25:38.946Z,101525.69
2022-12-03T15:28:45.331Z,101530.88
2022-12-03T15:31:50.015Z,101528.31
2022-12-03T15:34:52.043Z,101534.41
2022-12-03T15:41:24.952Z,101545.69
2022-12-03T15:44:26.908Z,101550.09
2022-12-03T15:47:28.843Z,101551.88
2022-12-03T15:50:33.530Z,101547.53
2022-12-03T15:53:37.947Z,101555.44
2022-12-03T15:59:59.962Z,101565.00
2022-12-03T16:03:01.809Z,101560.69
2022-12-03T16:06:03.872Z,101565.88
2022-12-03T16:09:05.708Z,101561.59
2022-12-03T16:12:07.598Z,101564.97
2022-12-03T16:15:10.169Z,101564.94
2022-12-03T16:18:12.125Z,101575.41
2022-12-03T16:21:14.303Z,101571.94
2022-12-03T16:24:16.220Z,101578.03
2022-12-03T16:27:22.742Z,101582.38
2022-12-03T16:30:27.224Z,101585.84
2022-12-03T16:33:29.035Z,101578.00
2022-12-03T16:36:30.953Z,101582.41
2022-12-03T16:42:52.758Z,101592.00
2022-12-03T16:46:20.656Z,101592.88
2022-12-03T16:49:22.939Z,101604.19
2022-12-03T16:52:24.808Z,101602.47
2022-12-03T16:55:32.330Z,101591.22
2022-12-03T16:58:34.231Z,101596.53
2022-12-03T17:01:36.091Z,101604.28
2022-12-03T17:04:38.215Z,101605.09
2022-12-03T17:07:40.057Z,101603.38
2022-12-03T17:10:42.644Z,101609.56
2022-12-03T17:13:44.539Z,101599.19
2022-12-03T17:16:46.378Z,101611.41
2022-12-03T17:19:48.245Z,101616.63
2022-12-03T17:22:50.260Z,101613.22
2022-12-03T17:25:52.218Z,101619.31
2022-12-03T17:28:54.155Z,101621.03
2022-12-03T17:31:56.001Z,101625.44
2022-12-03T17:34:58.019Z,101627.22
2022-12-03T17:37:59.974Z,101633.25
2022-12-03T17:41:01.770Z,101639.41
2022-12-03T17:44:09.733Z,101639.44
2022-12-03T17:47:12.665Z,101633.34
2022-12-03T17:50:14.545Z,101638.56
2022-12-03T17:53:16.405Z,101638.59
2022-12-03T17:56:18.273Z,101644.69
2022-12-03T17:59:20.146Z,101636.88
2022-12-03T18:02:21.999Z,101636.00
2022-12-03T18:05:25.773Z,101649.09
2022-12-03T18:08:27.650Z,101643.88
2022-12-03T18:11:29.446Z,101644.78
2022-12-03T18:14:31.290Z,101644.78
2022-12-03T18:17:33.171Z,101657.88
2022-12-03T18:20:35.185Z,101650.06
2022-12-03T18:23:37.081Z,101648.34
2022-12-03T18:26:39.034Z,101643.97
2022-12-03T18:29:40.822Z,101641.41
2022-12-03T18:32:42.728Z,101651.91
2022-12-03T18:35:44.706Z,101658.84
2022-12-03T18:38:56.963Z,101659.72
2022-12-03T18:41:58.864Z,101660.63
2022-12-03T18:45:01.282Z,101663.22
2022-12-03T18:48:11.897Z,101660.63
2022-12-03T18:51:17.621Z,101662.38
2022-12-03T18:54:19.419Z,101663.25
2022-12-03T18:57:21.383Z,101664.13
2022-12-03T19:00:23.429Z,101668.50
2022-12-03T19:03:25.406Z,101672.00
2022-12-03T19:06:29.080Z,101672.84
2022-12-03T19:09:30.942Z,101679.81
2022-12-03T19:12:33.264Z,101679.84
2022-12-03T19:15:41.460Z,101683.31
2022-12-03T19:18:43.803Z,101685.94
2022-12-03T19:21:45.603Z,101689.41
2022-12-03T19:24:47.476Z,101690.28
2022-12-03T19:27:50.824Z,101691.16
2022-12-03T19:31:14.728Z,101682.47
2022-12-03T19:34:17.071Z,101698.13
2022-12-03T19:37:18.903Z,101698.13
2022-12-03T19:40:23.161Z,101691.19
2022-12-03T19:43:25.012Z,101697.28
2022-12-03T19:46:31.752Z,101699.00
2022-12-03T19:49:33.765Z,101696.41
2022-12-03T19:52:36.555Z,101693.81
2022-12-03T19:55:38.540Z,101703.38
2022-12-03T19:58:42.471Z,101707.72
2022-12-03T20:01:44.354Z,101705.09
2022-12-03T20:04:46.349Z,101709.47
2022-12-03T20:07:48.200Z,101719.03
2022-12-03T20:10:50.100Z,101718.16
2022-12-03T20:13:58.228Z,101719.91
2022-12-03T20:17:00.126Z,101716.41
2022-12-03T20:20:02.023Z,101720.78
2022-12-03T20:23:04.019Z,101722.50
2022-12-03T20:26:13.104Z,101722.50
2022-12-03T20:29:15.061Z,101718.16
2022-12-03T20:32:17.164Z,101726.84
2022-12-03T20:35:19.057Z,101716.44
2022-12-03T20:38:22.122Z,101725.13
2022-12-03T20:41:24.103Z,101725.97
2022-12-03T20:44:25.944Z,101731.19
2022-12-03T20:47:27.848Z,101727.72
2022-12-03T20:50:29.646Z,101728.59
2022-12-03T20:53:31.488Z,101739.03
2022-12-03T20:56:37.443Z,101737.28
2022-12-03T20:59:39.390Z,101733.81
2022-12-03T21:02:41.222Z,101738.16
2022-12-03T21:05:43.989Z,101736.41
2022-12-03T21:08:46.278Z,101737.28
2022-12-03T21:11:48.163Z,101744.22
2022-12-03T21:14:50.029Z,101743.38
2022-12-03T21:17:52.086Z,101740.75
2022-12-03T21:20:53.955Z,101740.75
2022-12-03T21:23:57.483Z,101738.16
2022-12-03T21:26:59.292Z,101745.97
2022-12-03T21:30:01.113Z,101734.66
2022-12-03T21:33:03.035Z,101736.41
2022-12-03T21:36:05.971Z,101738.13
2022-12-03T21:39:08.084Z,101739.88
2022-12-03T21:42:34.487Z,101745.97
2022-12-03T21:45:31.816Z,101735.53
2022-12-03T21:48:33.916Z,101735.53
2022-12-03T21:51:35.779Z,101744.22
2022-12-03T21:54:37.655Z,101740.75
2022-12-03T21:57:39.536Z,101749.44
2022-12-03T22:00:41.337Z,101742.50
2022-12-03T22:03:43.564Z,101752.91
2022-12-03T22:06:45.371Z,101750.31
2022-12-03T22:09:47.230Z,101748.56
2022-12-03T22:12:49.052Z,101757.28
2022-12-03T22:15:50.886Z,101750.31
2022-12-03T22:18:54.154Z,101753.78
2022-12-03T22:21:55.995Z,101743.38
2022-12-03T22:24:57.876Z,101742.50
2022-12-03T22:27:59.830Z,101739.88
2022-12-03T22:31:08.775Z,101742.50
2022-12-03T22:34:10.657Z,101739.00
2022-12-03T22:37:12.570Z,101736.41
2022-12-03T22:40:14.675Z,101742.50
2022-12-03T22:43:17.289Z,101734.66
2022-12-03T22:46:19.167Z,101737.28
2022-12-03T22:49:21.432Z,101745.97
2022-12-03T22:52:23.306Z,101747.69
2022-12-03T22:55:25.162Z,101740.75
2022-12-03T22:58:28.760Z,101755.50
2022-12-03T23:01:33.071Z,101750.31
2022-12-03T23:04:34.939Z,101753.78
2022-12-03T23:07:36.873Z,101759.00
2022-12-03T23:10:42.492Z,101763.31
2022-12-03T23:13:44.831Z,101760.72
2022-12-03T23:16:46.735Z,101758.97
2022-12-03T23:19:48.749Z,101759.84
2022-12-03T23:22:51.451Z,101758.09
2022-12-03T23:25:58.134Z,101763.31
2022-12-03T23:29:00.035Z,101756.34
2022-12-03T23:32:02.056Z,101757.22
2022-12-03T23:35:05.344Z,101763.28
2022-12-03T23:38:07.162Z,101766.75
2022-12-03T23:41:11.757Z,101768.47
2022-12-03T23:44:13.644Z,101771.94
2022-12-03T23:47:15.569Z,101776.25
2022-12-03T23:50:17.461Z,101773.66
2022-12-03T23:53:19.326Z,101776.25
2022-12-03T23:56:27.302Z,101787.50
2022-12-03T23:59:29.133Z,101791.00
